Time;durP1;ratioP1;P1;durP2;ratioP2;P2;SDS_P1;SDS_P2;PMS_P1;PMS_P2;Temp;Humidity;BMP_temperature;BMP_pressure;BME280_temperature;BME280_humidity;BME280_pressure;Samples;Min_cycle;Max_cycle;Signal;HPM_P1;HPM_P2
2022/07/14 00:01:37;;;;;;;11.45;2.40;;;13.70;99.90;;;;;;5073590;28;20405;-84
2022/07/14 00:04:04;;;;;;;11.27;2.17;;;13.70;99.90;;;;;;5072401;28;20055;-84
2022/07/14 00:06:30;;;;;;;15.80;2.50;;;13.70;99.90;;;;;;5055760;28;20060;-85
2022/07/14 00:08:55;;;;;;;11.10;2.20;;;13.60;99.90;;;;;;5071443;28;20499;-85
2022/07/14 00:11:21;;;;;;;14.27;2.28;;;13.60;99.90;;;;;;5055942;28;20139;-84
2022/07/14 00:13:47;;;;;;;11.65;2.45;;;13.60;99.90;;;;;;5071936;28;20037;-85
2022/07/14 00:16:13;;;;;;;12.20;2.33;;;13.60;99.90;;;;;;5072334;28;20094;-85
2022/07/14 00:18:43;;;;;;;13.77;2.20;;;13.60;99.90;;;;;;5072047;28;20070;-85
2022/07/14 00:21:18;;;;;;;10.20;2.10;;;13.60;99.90;;;;;;5055328;28;20040;-85
2022/07/14 00:23:45;;;;;;;15.85;2.40;;;13.40;99.90;;;;;;5071567;28;20275;-85
2022/07/14 00:26:12;;;;;;;11.05;2.55;;;13.50;99.90;;;;;;5073527;28;20036;-85
2022/07/14 00:28:39;;;;;;;16.35;2.38;;;13.40;99.90;;;;;;5071792;28;20381;-85
2022/07/14 00:31:09;;;;;;;17.70;2.50;;;13.40;99.90;;;;;;5071984;28;20040;-84
2022/07/14 00:33:36;;;;;;;14.95;2.80;;;13.40;99.90;;;;;;5072058;28;20040;-85
2022/07/14 00:36:02;;;;;;;10.50;2.70;;;13.30;99.90;;;;;;5055159;28;20110;-85
2022/07/14 00:38:28;;;;;;;14.63;2.40;;;13.30;99.90;;;;;;5071677;28;20081;-85
2022/07/14 00:40:53;;;;;;;9.95;2.33;;;13.20;99.90;;;;;;5071785;28;20491;-85
2022/07/14 00:43:19;;;;;;;13.48;2.63;;;13.20;99.90;;;;;;5071878;28;20044;-85
2022/07/14 00:45:45;;;;;;;14.15;2.65;;;13.00;99.90;;;;;;5071925;28;20063;-84
2022/07/14 00:48:12;;;;;;;12.60;2.78;;;13.00;99.90;;;;;;5071273;28;20095;-85
2022/07/14 00:50:41;;;;;;;12.40;2.60;;;13.10;99.90;;;;;;5055356;28;20048;-85
2022/07/14 00:53:08;;;;;;;11.10;2.60;;;13.00;99.90;;;;;;5055116;28;20045;-84
2022/07/14 00:55:34;;;;;;;13.75;2.75;;;12.80;99.90;;;;;;5071686;28;20058;-84
2022/07/14 00:58:00;;;;;;;13.00;3.10;;;12.80;99.90;;;;;;5071322;28;20049;-84
2022/07/14 01:00:26;;;;;;;16.55;3.25;;;12.80;99.90;;;;;;5072701;28;20055;-84
2022/07/14 01:02:52;;;;;;;13.80;2.63;;;12.70;99.90;;;;;;5055060;28;20068;-84
2022/07/14 01:05:18;;;;;;;16.10;3.30;;;12.60;99.90;;;;;;5054616;28;20036;-84
2022/07/14 01:07:44;;;;;;;14.68;3.13;;;12.60;99.90;;;;;;5071522;28;20131;-84
2022/07/14 01:10:11;;;;;;;11.98;2.90;;;12.50;99.90;;;;;;5071550;28;20067;-85
2022/07/14 01:12:38;;;;;;;18.52;3.50;;;12.40;99.90;;;;;;5071229;28;20152;-84
2022/07/14 01:15:04;;;;;;;16.92;3.22;;;12.40;99.90;;;;;;5071675;28;20040;-84
2022/07/14 01:17:31;;;;;;;10.15;2.75;;;12.30;99.90;;;;;;5072574;28;20400;-84
2022/07/14 01:19:57;;;;;;;21.10;3.00;;;12.30;99.90;;;;;;5073869;28;20044;-84
2022/07/14 01:22:22;;;;;;;15.50;3.22;;;12.20;99.90;;;;;;5075335;28;20044;-84
2022/07/14 01:24:48;;;;;;;17.02;3.38;;;12.40;99.90;;;;;;5058662;28;20078;-84
2022/07/14 01:27:14;;;;;;;13.77;3.33;;;12.30;99.90;;;;;;5074739;28;20382;-84
2022/07/14 01:29:39;;;;;;;17.15;3.58;;;12.30;99.90;;;;;;5075425;28;20044;-84
2022/07/14 01:32:05;;;;;;;13.27;3.25;;;12.20;99.90;;;;;;5075166;28;20036;-85
2022/07/14 01:34:31;;;;;;;13.75;3.10;;;12.20;99.90;;;;;;5058772;28;20040;-84
2022/07/14 01:36:57;;;;;;;14.50;3.22;;;12.20;99.90;;;;;;5075047;28;20050;-84
2022/07/14 01:39:23;;;;;;;12.18;3.20;;;12.10;99.90;;;;;;5058406;28;20048;-84
2022/07/14 01:41:49;;;;;;;18.58;3.20;;;12.10;99.90;;;;;;5058360;28;20044;-84
2022/07/14 01:44:15;;;;;;;13.80;2.90;;;12.10;99.90;;;;;;5074902;28;20408;-84
2022/07/14 01:46:41;;;;;;;23.48;3.78;;;12.10;99.90;;;;;;5075174;28;20103;-84
2022/07/14 01:49:07;;;;;;;18.10;3.53;;;12.10;99.90;;;;;;5058576;28;20056;-84
2022/07/14 01:51:33;;;;;;;15.82;3.50;;;12.10;99.90;;;;;;5074913;28;20439;-84
2022/07/14 01:53:59;;;;;;;17.02;3.65;;;12.10;99.90;;;;;;5058068;28;20055;-85
2022/07/14 01:56:24;;;;;;;12.95;3.42;;;12.00;99.90;;;;;;5074540;28;20443;-84
2022/07/14 01:58:50;;;;;;;19.13;4.15;;;12.00;99.90;;;;;;5057620;28;20052;-83
2022/07/14 02:04:01;;;;;;;18.60;3.40;;;12.00;99.90;;;;;;5074483;28;20474;-83
2022/07/14 02:06:27;;;;;;;23.42;4.05;;;12.00;99.90;;;;;;5057881;28;20040;-84
2022/07/14 02:08:52;;;;;;;17.70;3.92;;;12.10;99.90;;;;;;5074514;28;20047;-84
2022/07/14 02:14:03;;;;;;;14.48;3.17;;;11.90;99.90;;;;;;5074536;28;20047;-84
2022/07/14 02:16:30;;;;;;;26.63;4.38;;;11.90;99.90;;;;;;5057676;28;20049;-83
2022/07/14 02:18:56;;;;;;;15.55;3.30;;;11.90;99.90;;;;;;5075270;28;20043;-84
2022/07/14 02:21:23;;;;;;;19.75;3.60;;;11.80;99.90;;;;;;5075248;28;20123;-84
2022/07/14 02:23:49;;;;;;;14.68;3.22;;;11.90;99.90;;;;;;5074201;28;20040;-84
2022/07/14 02:26:14;;;;;;;22.55;3.75;;;12.00;99.90;;;;;;5074362;28;20045;-84
2022/07/14 02:28:41;;;;;;;9.95;3.35;;;11.80;99.90;;;;;;5057590;28;20051;-84
2022/07/14 02:31:09;;;;;;;17.58;3.90;;;11.80;99.90;;;;;;5057248;28;20044;-84
2022/07/14 02:33:35;;;;;;;15.20;3.10;;;11.80;99.90;;;;;;5074139;28;20068;-84
2022/07/14 02:36:01;;;;;;;14.25;3.03;;;11.80;99.90;;;;;;5074222;28;20044;-83
2022/07/14 02:38:27;;;;;;;17.95;3.08;;;11.70;99.90;;;;;;5073861;28;20059;-83
2022/07/14 02:40:52;;;;;;;12.63;3.05;;;11.80;99.90;;;;;;5073797;28;20083;-83
2022/07/14 02:43:18;;;;;;;11.65;3.00;;;11.70;99.90;;;;;;5057367;28;20056;-83
2022/07/14 02:45:44;;;;;;;10.73;2.60;;;11.70;99.90;;;;;;5057164;28;20482;-83
2022/07/14 02:48:10;;;;;;;10.43;3.25;;;11.60;99.90;;;;;;5074023;28;20044;-84
2022/07/14 02:50:36;;;;;;;8.57;2.30;;;11.50;99.90;;;;;;5073985;28;20516;-84
2022/07/14 02:53:05;;;;;;;13.32;2.55;;;11.50;99.90;;;;;;5073804;28;20062;-83
2022/07/14 02:55:34;;;;;;;10.68;2.65;;;11.50;99.90;;;;;;5073700;28;20033;-84
2022/07/14 02:58:00;;;;;;;11.10;2.42;;;11.40;99.90;;;;;;5056536;28;20047;-84
2022/07/14 03:00:26;;;;;;;7.57;3.03;;;11.40;99.90;;;;;;5073706;28;20414;-84
2022/07/14 03:02:52;;;;;;;9.45;2.63;;;11.40;99.90;;;;;;5073665;28;20385;-84
2022/07/14 03:05:17;;;;;;;12.23;3.28;;;11.30;99.90;;;;;;5073489;28;20123;-84
2022/07/14 03:07:44;;;;;;;12.82;3.40;;;11.20;99.90;;;;;;5073458;28;20048;-84
2022/07/14 03:10:10;;;;;;;10.25;2.60;;;11.20;99.90;;;;;;5074367;28;20044;-83
2022/07/14 03:12:35;;;;;;;8.48;2.83;;;11.20;99.90;;;;;;5074450;28;20047;-83
2022/07/14 03:15:01;;;;;;;6.70;3.08;;;11.20;99.90;;;;;;5056867;28;20097;-83
2022/07/14 03:17:27;;;;;;;9.95;3.25;;;11.20;99.90;;;;;;5073132;28;20382;-84
2022/07/14 03:19:53;;;;;;;8.40;3.08;;;11.20;99.90;;;;;;5072778;28;20051;-84
2022/07/14 03:22:18;;;;;;;5.68;2.53;;;11.20;99.90;;;;;;5072749;28;20355;-83
2022/07/14 03:24:44;;;;;;;9.50;3.22;;;11.20;99.90;;;;;;5072891;28;20040;-84
2022/07/14 03:27:10;;;;;;;6.60;2.83;;;11.10;99.90;;;;;;5072776;28;20048;-84
2022/07/14 03:29:40;;;;;;;7.28;2.70;;;11.10;99.90;;;;;;5073385;28;20432;-83
2022/07/14 03:32:06;;;;;;;10.23;2.80;;;11.00;99.90;;;;;;5073113;28;20124;-84
2022/07/14 03:34:32;;;;;;;7.85;3.20;;;11.00;99.90;;;;;;5073158;28;20390;-83
2022/07/14 03:36:58;;;;;;;9.98;3.15;;;11.00;99.90;;;;;;5072795;28;20054;-84
2022/07/14 03:39:23;;;;;;;13.18;3.40;;;11.00;99.90;;;;;;5055849;28;20462;-84
2022/07/14 03:41:49;;;;;;;7.97;3.42;;;11.00;99.90;;;;;;5072183;28;20048;-83
2022/07/14 03:44:14;;;;;;;12.88;3.28;;;11.00;99.90;;;;;;5072711;28;20086;-83
2022/07/14 03:46:40;;;;;;;10.45;3.28;;;11.00;99.90;;;;;;5072630;28;20449;-83
2022/07/14 03:49:06;;;;;;;7.32;3.63;;;11.00;99.90;;;;;;5072728;28;20097;-83
2022/07/14 03:51:31;;;;;;;13.60;3.53;;;10.90;99.90;;;;;;5055914;28;20520;-84
2022/07/14 03:53:57;;;;;;;11.73;3.97;;;11.00;99.90;;;;;;5072579;28;20515;-83
2022/07/14 03:56:23;;;;;;;10.70;3.97;;;10.90;99.90;;;;;;5072257;28;20045;-84
2022/07/14 03:58:49;;;;;;;9.30;3.53;;;10.90;99.90;;;;;;5072236;28;20393;-84
2022/07/14 04:01:14;;;;;;;10.25;3.50;;;10.90;99.90;;;;;;5072608;28;20482;-83
2022/07/14 04:03:40;;;;;;;11.65;3.78;;;10.90;99.90;;;;;;5072461;28;20154;-83
2022/07/14 04:06:06;;;;;;;11.60;4.07;;;10.90;99.90;;;;;;5073372;28;20050;-83
2022/07/14 04:08:32;;;;;;;15.98;3.50;;;10.90;99.90;;;;;;5072219;28;20040;-83
2022/07/14 04:10:57;;;;;;;15.50;4.05;;;11.00;99.90;;;;;;5072070;28;20072;-84
2022/07/14 04:13:23;;;;;;;13.52;4.03;;;11.00;99.90;;;;;;5055716;28;20067;-86
2022/07/14 04:15:49;;;;;;;13.77;3.67;;;11.20;99.90;;;;;;5055503;28;20045;-84
2022/07/14 04:18:14;;;;;;;12.23;3.50;;;11.10;99.90;;;;;;5072050;28;20032;-83
2022/07/14 04:20:47;;;;;;;16.20;3.85;;;11.20;99.90;;;;;;5072024;28;20412;-84
2022/07/14 04:23:12;;;;;;;12.30;3.65;;;11.30;99.90;;;;;;5072125;28;20048;-83
2022/07/14 04:25:38;;;;;;;9.73;3.72;;;11.30;99.90;;;;;;5055290;28;20139;-83
2022/07/14 04:28:04;;;;;;;18.02;3.85;;;11.30;99.90;;;;;;5071926;28;20139;-83
2022/07/14 04:30:29;;;;;;;13.77;3.78;;;11.30;99.90;;;;;;5055678;28;20695;-83
2022/07/14 04:32:55;;;;;;;11.63;4.25;;;11.30;99.90;;;;;;5055522;28;20048;-83
2022/07/14 04:35:20;;;;;;;10.10;3.97;;;11.30;99.90;;;;;;5071994;28;20424;-83
2022/07/14 04:37:46;;;;;;;15.20;4.07;;;11.30;99.90;;;;;;5054818;28;20082;-83
2022/07/14 04:40:12;;;;;;;9.25;4.10;;;11.30;99.90;;;;;;5071955;28;20082;-83
2022/07/14 04:42:37;;;;;;;13.65;3.90;;;11.30;99.90;;;;;;5071679;28;20032;-83
2022/07/14 04:45:04;;;;;;;9.55;3.90;;;11.40;99.90;;;;;;5071782;28;20193;-83
2022/07/14 04:47:29;;;;;;;13.85;4.00;;;11.40;99.90;;;;;;5055286;28;20191;-83
2022/07/14 04:52:49;;;;;;;12.38;3.50;;;11.50;99.90;;;;;;5071586;28;20045;-83
2022/07/14 04:55:16;;;;;;;12.98;3.70;;;11.60;99.90;;;;;;5054574;28;20062;-83
2022/07/14 04:57:42;;;;;;;15.90;4.63;;;11.80;99.90;;;;;;5054651;28;20064;-84
2022/07/14 05:00:12;;;;;;;16.48;4.40;;;11.90;99.90;;;;;;5072333;28;20053;-84
2022/07/14 05:02:38;;;;;;;17.25;4.97;;;12.00;99.90;;;;;;5072725;28;20059;-83
2022/07/14 05:05:04;;;;;;;17.90;4.53;;;12.10;99.90;;;;;;5071641;28;20525;-83
2022/07/14 05:07:30;;;;;;;9.73;4.00;;;12.20;99.90;;;;;;5071293;28;20500;-83
2022/07/14 05:09:56;;;;;;;16.08;4.63;;;12.30;99.90;;;;;;5071449;28;20052;-84
2022/07/14 05:12:21;;;;;;;18.63;4.88;;;12.40;99.90;;;;;;5055463;28;20062;-84
2022/07/14 05:14:47;;;;;;;13.25;4.88;;;12.40;99.90;;;;;;5072176;28;20045;-84
2022/07/14 05:17:14;;;;;;;12.98;4.28;;;12.50;99.90;;;;;;5072440;28;20478;-85
2022/07/14 05:19:40;;;;;;;18.30;5.50;;;12.70;99.90;;;;;;5072508;28;20375;-85
2022/07/14 05:22:05;;;;;;;14.45;3.92;;;12.70;99.90;;;;;;5071949;28;20078;-84
2022/07/14 05:24:31;;;;;;;12.30;4.45;;;12.80;99.90;;;;;;5071918;28;20119;-85
2022/07/14 05:26:58;;;;;;;10.60;2.92;;;13.00;99.90;;;;;;5055629;28;20049;-85
2022/07/14 05:29:25;;;;;;;16.77;3.45;;;13.10;99.90;;;;;;5071605;28;20091;-85
2022/07/14 05:31:51;;;;;;;11.15;3.38;;;13.20;99.90;;;;;;5073128;28;20036;-85
2022/07/14 05:34:18;;;;;;;16.05;3.60;;;13.30;99.90;;;;;;5071660;28;20055;-85
2022/07/14 05:36:43;;;;;;;12.40;3.30;;;13.30;99.90;;;;;;5054708;28;20055;-85
2022/07/14 05:39:09;;;;;;;13.13;3.50;;;13.40;99.90;;;;;;5054407;28;20119;-85
2022/07/14 05:41:34;;;;;;;12.57;3.53;;;13.40;99.90;;;;;;5071366;28;20040;-87
2022/07/14 05:44:00;;;;;;;11.18;3.03;;;13.50;99.90;;;;;;5071485;28;20382;-85
2022/07/14 05:46:26;;;;;;;13.48;3.08;;;13.60;99.90;;;;;;5071257;28;20068;-84
2022/07/14 05:48:52;;;;;;;11.98;3.33;;;13.70;99.90;;;;;;5071292;28;20477;-85
2022/07/14 05:51:18;;;;;;;11.70;2.95;;;13.80;99.90;;;;;;5054650;28;20053;-85
2022/07/14 05:53:46;;;;;;;13.75;3.03;;;14.00;99.90;;;;;;5072052;28;20420;-85
2022/07/14 05:56:12;;;;;;;11.52;2.17;;;14.10;99.90;;;;;;5070947;28;20040;-86
2022/07/14 05:58:39;;;;;;;9.00;2.10;;;14.20;99.90;;;;;;5070698;28;20088;-85
2022/07/14 06:01:07;;;;;;;6.97;2.17;;;14.40;99.90;;;;;;5054331;28;20075;-86
2022/07/14 06:03:32;;;;;;;11.70;2.60;;;14.60;99.90;;;;;;5054841;28;20492;-86
2022/07/14 06:06:00;;;;;;;11.18;2.10;;;14.80;99.90;;;;;;5055656;28;20045;-86
2022/07/14 06:08:25;;;;;;;8.45;1.92;;;15.00;99.90;;;;;;5074696;28;20051;-85
2022/07/14 06:10:51;;;;;;;11.15;2.20;;;15.10;99.90;;;;;;5074400;28;20466;-87
2022/07/14 06:13:17;;;;;;;10.30;2.17;;;15.10;99.90;;;;;;5074603;28;20162;-87
2022/07/14 06:15:44;;;;;;;14.18;2.38;;;15.20;99.90;;;;;;5057913;28;20093;-87
2022/07/14 06:18:11;;;;;;;9.15;1.75;;;15.30;99.90;;;;;;5074415;28;20040;-86
2022/07/14 06:20:39;;;;;;;7.93;1.55;;;15.60;99.90;;;;;;5057649;28;20036;-87
2022/07/14 06:23:05;;;;;;;9.85;1.58;;;15.80;99.90;;;;;;5084305;28;20427;-87
2022/07/14 06:25:30;;;;;;;8.43;1.60;;;16.10;99.90;;;;;;5094145;28;20051;-86
2022/07/14 06:27:56;;;;;;;8.73;1.70;;;16.30;99.90;;;;;;5077538;28;20381;-86
2022/07/14 06:30:21;;;;;;;8.15;1.60;;;16.40;99.90;;;;;;5095738;28;20047;-87
2022/07/14 06:32:47;;;;;;;9.05;1.75;;;16.40;99.90;;;;;;5094321;28;20048;-89
2022/07/14 06:35:13;;;;;;;6.68;1.48;;;16.50;99.90;;;;;;5077345;28;20059;-89
2022/07/14 06:37:38;;;;;;;9.63;1.75;;;16.50;99.90;;;;;;5094586;28;20119;-89
2022/07/14 06:40:06;;;;;;;11.82;1.75;;;16.70;99.90;;;;;;5094185;28;20043;-87
2022/07/14 06:42:33;;;;;;;11.25;1.95;;;16.90;99.90;;;;;;5095739;28;20048;-90
2022/07/14 06:44:59;;;;;;;10.63;1.75;;;17.00;99.90;;;;;;5095775;28;20047;-90
2022/07/14 06:47:24;;;;;;;11.35;1.90;;;17.20;99.90;;;;;;5094336;28;20040;-90
2022/07/14 06:49:50;;;;;;;7.82;1.50;;;17.60;99.90;;;;;;5095249;28;20512;-90
2022/07/14 06:52:16;;;;;;;6.72;1.73;;;17.80;99.90;;;;;;5083670;28;20044;-89
2022/07/14 06:54:41;;;;;;;9.77;1.45;;;18.00;99.90;;;;;;5091547;28;20047;-90
2022/07/14 06:57:07;;;;;;;6.95;1.00;;;18.00;99.90;;;;;;5077097;28;20052;-90
2022/07/14 06:59:33;;;;;;;12.02;1.80;;;18.00;99.90;;;;;;5076688;28;20059;-90
2022/07/14 07:01:58;;;;;;;10.50;1.92;;;17.90;99.90;;;;;;5094151;28;20055;-88
2022/07/14 07:04:24;;;;;;;8.82;1.10;;;17.80;99.90;;;;;;5095003;28;20079;-89
2022/07/14 07:06:51;;;;;;;6.28;1.02;;;17.80;99.90;;;;;;5095140;28;20115;-90
2022/07/14 07:09:19;;;;;;;6.57;1.50;;;17.90;99.90;;;;;;5094018;28;20122;-88
2022/07/14 07:11:49;;;;;;;14.73;1.50;;;18.10;99.90;;;;;;5089619;28;20040;-88
2022/07/14 07:14:16;;;;;;;12.50;2.05;;;18.20;99.90;;;;;;5068365;28;20065;-87
2022/07/14 07:16:47;;;;;;;8.57;1.63;;;18.40;99.90;;;;;;5095324;28;20102;-87
2022/07/14 07:19:18;;;;;;;8.07;1.50;;;18.90;99.90;;;;;;5093634;28;20046;-85
2022/07/14 07:21:44;;;;;;;9.13;1.42;;;19.50;99.90;;;;;;5094485;28;20036;-88
2022/07/14 07:24:09;;;;;;;8.93;1.58;;;19.90;99.90;;;;;;5094327;28;20043;-89
2022/07/14 07:26:38;;;;;;;12.50;1.13;;;19.90;99.90;;;;;;5076834;28;20109;-87
2022/07/14 07:29:04;;;;;;;9.02;1.27;;;19.90;99.90;;;;;;5094575;28;20032;-86
2022/07/14 07:31:31;;;;;;;9.38;1.60;;;19.90;99.90;;;;;;5093443;28;20460;-84
2022/07/14 07:33:56;;;;;;;8.80;1.17;;;19.60;99.90;;;;;;5078254;28;20587;-85
2022/07/14 07:36:22;;;;;;;8.98;1.23;;;19.80;99.90;;;;;;5088082;27;20626;-86
2022/07/14 07:38:48;;;;;;;4.50;0.98;;;20.30;99.90;;;;;;5109890;28;20043;-83
2022/07/14 07:41:13;;;;;;;8.02;1.35;;;20.70;99.90;;;;;;5110334;28;20036;-89
2022/07/14 07:43:39;;;;;;;2.58;0.90;;;21.40;99.90;;;;;;5092452;28;20388;-87
2022/07/14 07:46:05;;;;;;;4.20;1.00;;;22.20;99.90;;;;;;5092269;28;20044;-88
2022/07/14 07:48:32;;;;;;;9.15;1.20;;;23.00;99.90;;;;;;5075262;28;20182;-86
2022/07/14 07:50:58;;;;;;;5.47;1.20;;;23.90;94.40;;;;;;5093307;28;20420;-84
2022/07/14 07:53:24;;;;;;;7.95;1.10;;;24.60;81.80;;;;;;5093372;28;20036;-84
2022/07/14 07:55:49;;;;;;;6.55;0.90;;;25.00;79.60;;;;;;5092069;28;20036;-82
2022/07/14 07:58:15;;;;;;;5.53;1.02;;;25.50;71.60;;;;;;5091390;28;20104;-87
2022/07/14 08:00:41;;;;;;;4.45;1.13;;;25.80;71.10;;;;;;5093860;28;20058;-88
2022/07/14 08:03:06;;;;;;;2.22;0.75;;;25.70;69.20;;;;;;5095552;28;20093;-86
2022/07/14 08:05:33;;;;;;;5.22;1.00;;;25.80;65.30;;;;;;5104269;28;20048;-85
2022/07/14 08:07:59;;;;;;;3.53;0.70;;;25.80;63.20;;;;;;5112789;28;20058;-84
2022/07/14 08:10:25;;;;;;;3.65;0.88;;;26.00;63.00;;;;;;5106419;28;20058;-88
2022/07/14 08:12:51;;;;;;;4.80;0.80;;;26.40;62.40;;;;;;5077272;28;20054;-87
2022/07/14 08:15:19;;;;;;;4.35;0.75;;;26.80;58.90;;;;;;5074905;28;20052;-87
2022/07/14 08:17:45;;;;;;;5.88;1.10;;;27.10;57.60;;;;;;5091992;28;20047;-88
2022/07/14 08:20:12;;;;;;;4.50;0.82;;;27.20;57.10;;;;;;5091113;28;20134;-87
2022/07/14 08:22:38;;;;;;;6.75;0.85;;;27.20;56.00;;;;;;5092401;28;20051;-88
2022/07/14 08:25:06;;;;;;;4.93;0.93;;;27.10;56.00;;;;;;5091550;28;20044;-87
2022/07/14 08:27:32;;;;;;;8.15;1.20;;;27.30;55.00;;;;;;5092613;28;20039;-86
2022/07/14 08:29:58;;;;;;;3.75;0.80;;;27.50;54.60;;;;;;5091205;28;20087;-88
2022/07/14 08:32:53;;;;;;;5.60;1.08;;;27.80;53.10;;;;;;5091115;28;20078;-88
2022/07/14 08:35:25;;;;;;;3.35;0.80;;;28.20;52.70;;;;;;5028337;28;20132;-85
2022/07/14 08:37:53;;;;;;;4.13;0.90;;;28.60;53.30;;;;;;5035682;28;20147;-87
2022/07/14 08:40:22;;;;;;;6.88;0.80;;;28.60;52.40;;;;;;5049184;28;20086;-86
2022/07/14 08:42:51;;;;;;;5.30;1.02;;;27.50;54.20;;;;;;5049887;28;20398;-87
2022/07/14 08:45:24;;;;;;;3.58;1.08;;;27.10;53.70;;;;;;5051023;28;20077;-85
2022/07/14 08:47:50;;;;;;;8.27;1.00;;;27.10;53.40;;;;;;5052844;28;20438;-87
2022/07/14 08:50:18;;;;;;;3.95;0.70;;;26.00;54.60;;;;;;5035776;28;20084;-90
2022/07/14 08:52:46;;;;;;;3.83;0.80;;;24.70;57.70;;;;;;5052504;28;20060;-87
2022/07/14 08:55:16;;;;;;;3.25;0.80;;;23.90;62.60;;;;;;5036757;28;20470;-87
2022/07/14 08:57:42;;;;;;;4.47;0.93;;;24.70;59.00;;;;;;5036610;28;20466;-85
2022/07/14 09:00:11;;;;;;;3.55;0.80;;;25.90;58.50;;;;;;5069644;28;20219;-86
2022/07/14 09:02:38;;;;;;;4.80;0.60;;;27.10;54.90;;;;;;5053138;28;20032;-90
2022/07/14 09:05:05;;;;;;;3.55;0.63;;;27.90;53.00;;;;;;5036042;28;20148;-87
2022/07/14 09:07:37;;;;;;;2.95;0.70;;;28.60;53.30;;;;;;5053234;28;20041;-87
2022/07/14 09:10:09;;;;;;;2.95;0.80;;;29.30;50.00;;;;;;5052465;28;20126;-86
2022/07/14 09:12:36;;;;;;;4.35;0.77;;;29.70;48.90;;;;;;5085995;28;20127;-91
2022/07/14 09:17:51;;;;;;;2.88;0.63;;;29.90;49.00;;;;;;5091071;28;20061;-87
2022/07/14 09:20:16;;;;;;;3.45;0.90;;;30.00;48.90;;;;;;5091265;28;20508;-86
2022/07/14 09:22:43;;;;;;;3.03;0.63;;;29.70;50.20;;;;;;5091213;28;20039;-86
2022/07/14 09:25:13;;;;;;;4.13;0.68;;;29.80;48.80;;;;;;5091055;28;20485;-87
2022/07/14 09:27:39;;;;;;;3.88;0.70;;;30.10;48.80;;;;;;5074145;28;20062;-89
2022/07/14 09:30:07;;;;;;;3.28;0.98;;;30.60;47.50;;;;;;5091080;28;20048;-88
2022/07/14 09:32:49;;;;;;;2.30;0.60;;;31.10;46.70;;;;;;5074018;28;20051;-83
2022/07/14 09:35:34;;;;;;;5.40;0.60;;;30.40;45.90;;;;;;5086962;27;20086;-84
2022/07/14 09:38:12;;;;;;;1.40;0.55;;;29.10;46.30;;;;;;5094340;28;20472;-86
2022/07/14 09:40:38;;;;;;;2.90;0.63;;;28.10;48.80;;;;;;5095082;28;20055;-86
2022/07/14 09:43:09;;;;;;;3.83;0.80;;;27.40;49.60;;;;;;5115630;28;20094;-85
2022/07/14 09:45:37;;;;;;;2.85;0.50;;;27.00;53.00;;;;;;5115541;28;20047;-86
2022/07/14 09:48:14;;;;;;;6.00;1.10;;;26.60;53.10;;;;;;5115618;28;20047;-84
2022/07/14 09:50:43;;;;;;;3.80;0.90;;;26.30;53.40;;;;;;5115407;28;20039;-86
2022/07/14 09:53:31;;;;;;;3.20;0.43;;;25.80;55.20;;;;;;5114808;28;20051;-87
2022/07/14 09:56:04;;;;;;;2.80;0.57;;;25.60;55.60;;;;;;5115356;28;20036;-86
2022/07/14 09:58:33;;;;;;;2.40;0.60;;;25.30;54.80;;;;;;5114787;28;20118;-84
2022/07/14 10:01:08;;;;;;;2.42;0.60;;;25.00;55.40;;;;;;5115965;28;20097;-84
2022/07/14 10:03:35;;;;;;;2.90;0.60;;;24.70;56.50;;;;;;5114514;28;20061;-82
2022/07/14 10:06:03;;;;;;;5.93;0.80;;;24.40;57.40;;;;;;5116214;28;20040;-86
2022/07/14 10:08:31;;;;;;;3.08;0.60;;;24.20;58.00;;;;;;5114652;28;20073;-87
2022/07/14 10:11:02;;;;;;;4.68;0.70;;;24.10;59.80;;;;;;5114878;28;20096;-86
2022/07/14 10:13:29;;;;;;;2.75;0.68;;;24.10;60.50;;;;;;5115902;28;20522;-85
2022/07/14 10:15:56;;;;;;;2.13;0.50;;;24.00;61.30;;;;;;5114722;28;20357;-86
2022/07/14 10:18:24;;;;;;;3.05;0.60;;;23.80;60.60;;;;;;5114292;28;20047;-86
2022/07/14 10:20:52;;;;;;;4.72;0.65;;;23.70;61.60;;;;;;5114340;28;20134;-86
2022/07/14 10:23:19;;;;;;;1.27;0.50;;;23.60;62.70;;;;;;5094261;28;20143;-90
2022/07/14 10:25:54;;;;;;;3.85;0.60;;;23.50;64.10;;;;;;5104623;28;20036;-87
2022/07/14 10:28:20;;;;;;;3.60;0.50;;;23.30;62.00;;;;;;5097668;28;20092;-84
2022/07/14 10:30:45;;;;;;;2.47;0.40;;;23.00;63.10;;;;;;5114261;28;20050;-85
2022/07/14 10:33:23;;;;;;;7.05;0.73;;;22.80;63.50;;;;;;5114227;28;20039;-86
2022/07/14 10:35:55;;;;;;;2.17;0.40;;;22.70;69.30;;;;;;5090299;27;20051;-85
2022/07/14 10:38:43;;;;;;;4.85;0.55;;;22.80;67.00;;;;;;5096962;28;20469;-89
2022/07/14 10:41:31;;;;;;;2.85;0.57;;;22.80;67.90;;;;;;5097277;28;20047;-88
2022/07/14 10:43:56;;;;;;;4.20;0.80;;;22.80;71.50;;;;;;5097157;28;20445;-88
2022/07/14 10:46:37;;;;;;;2.38;0.45;;;22.80;71.10;;;;;;5097753;28;20130;-89
2022/07/14 10:49:06;;;;;;;3.50;0.70;;;23.10;69.90;;;;;;5096487;28;20134;-89
2022/07/14 10:51:33;;;;;;;4.60;0.75;;;23.10;69.90;;;;;;5113440;28;20055;-88
2022/07/14 10:54:08;;;;;;;2.22;0.50;;;23.00;70.70;;;;;;5104584;28;20032;-86
2022/07/14 10:56:35;;;;;;;2.00;0.50;;;23.00;65.00;;;;;;5077011;28;20139;-89
2022/07/14 10:59:26;;;;;;;1.45;0.57;;;22.90;64.20;;;;;;5094525;28;20110;-88
2022/07/14 11:02:11;;;;;;;5.15;0.70;;;23.00;67.10;;;;;;5093715;28;20570;-87
2022/07/14 11:05:14;;;;;;;3.45;0.45;;;23.10;64.40;;;;;;5106698;28;20082;-88
2022/07/14 11:07:46;;;;;;;2.08;0.35;;;23.10;67.00;;;;;;5022564;28;20090;-87
2022/07/14 11:10:18;;;;;;;1.83;0.40;;;23.10;65.50;;;;;;5041569;28;20056;-89
2022/07/14 11:13:02;;;;;;;3.85;0.65;;;23.10;64.70;;;;;;5047574;28;20529;-88
2022/07/14 11:15:54;;;;;;;3.40;0.60;;;23.00;68.10;;;;;;5037766;28;20170;-89
2022/07/14 11:18:29;;;;;;;1.65;0.57;;;22.90;65.80;;;;;;5049802;28;20049;-91
2022/07/14 11:21:17;;;;;;;2.28;0.40;;;22.80;66.50;;;;;;5015784;28;20104;-87
2022/07/14 11:23:49;;;;;;;2.45;0.47;;;22.60;67.60;;;;;;5014956;28;20068;-94
2022/07/14 11:26:37;;;;;;;1.73;0.47;;;22.50;73.30;;;;;;5014899;28;20387;-88
2022/07/14 11:29:05;;;;;;;4.47;0.70;;;22.40;78.50;;;;;;5015012;28;20053;-88
2022/07/14 11:31:50;;;;;;;5.22;0.55;;;22.30;78.90;;;;;;4998246;28;20143;-88
2022/07/14 11:37:06;;;;;;;3.13;0.68;;;22.20;77.70;;;;;;5014203;28;20438;-90
2022/07/14 11:39:40;;;;;;;3.30;0.50;;;22.00;74.60;;;;;;5014579;28;20224;-85
2022/07/14 11:42:08;;;;;;;2.38;0.70;;;21.90;78.10;;;;;;5014816;28;20517;-88
2022/07/14 11:44:35;;;;;;;2.65;0.60;;;21.90;81.40;;;;;;5040855;28;20512;-85
2022/07/14 11:47:03;;;;;;;2.53;0.57;;;22.10;80.00;;;;;;5072310;28;20128;-86
2022/07/14 11:49:29;;;;;;;3.53;0.70;;;22.30;78.70;;;;;;5067007;28;20055;-89
2022/07/14 11:51:59;;;;;;;4.63;0.57;;;22.50;74.10;;;;;;5092372;28;20044;-86
2022/07/14 11:54:26;;;;;;;3.05;0.60;;;22.60;75.00;;;;;;5080255;28;20089;-86
2022/07/14 11:57:06;;;;;;;3.35;0.60;;;22.80;74.60;;;;;;5072002;28;20041;-85
2022/07/14 11:59:36;;;;;;;3.90;0.70;;;22.90;75.40;;;;;;5057731;28;20487;-88
2022/07/14 12:02:17;;;;;;;5.88;0.60;;;23.00;74.20;;;;;;5072938;28;20548;-87
2022/07/14 12:04:55;;;;;;;2.25;0.40;;;23.30;81.30;;;;;;5073302;28;20081;-87
2022/07/14 12:07:27;;;;;;;3.88;0.65;;;23.50;76.10;;;;;;5079166;28;20042;-88
2022/07/14 12:09:53;;;;;;;6.28;1.02;;;23.70;69.70;;;;;;5093784;28;20051;-85
2022/07/14 12:12:20;;;;;;;8.60;0.82;;;24.30;74.80;;;;;;5093402;28;20048;-83
2022/07/14 12:14:47;;;;;;;3.42;0.60;;;25.40;68.60;;;;;;5092685;28;20393;-88
2022/07/14 12:17:14;;;;;;;4.68;0.70;;;26.40;61.10;;;;;;5092160;28;20040;-88
2022/07/14 12:19:40;;;;;;;3.17;0.60;;;26.60;59.40;;;;;;5075519;28;20032;-88
2022/07/14 12:22:06;;;;;;;5.82;0.80;;;27.10;57.60;;;;;;5075129;28;20054;-91
2022/07/14 12:24:33;;;;;;;3.60;0.63;;;27.30;57.30;;;;;;5077479;28;20048;-88
2022/07/14 12:27:07;;;;;;;2.50;0.60;;;27.40;57.50;;;;;;5073031;28;20032;-87
2022/07/14 12:29:35;;;;;;;6.10;0.60;;;27.00;58.60;;;;;;5071673;28;20051;-90
2022/07/14 12:32:02;;;;;;;3.33;0.65;;;26.90;60.70;;;;;;5071513;28;20039;-87
2022/07/14 12:34:30;;;;;;;3.05;0.73;;;27.50;61.00;;;;;;5043316;28;20139;-88
2022/07/14 12:37:04;;;;;;;2.30;0.50;;;28.80;55.10;;;;;;5114385;28;20039;-87
2022/07/14 12:39:30;;;;;;;1.23;0.50;;;28.90;51.20;;;;;;5095357;28;20074;-88
2022/07/14 12:41:58;;;;;;;3.33;0.60;;;27.90;51.80;;;;;;5113456;28;20134;-86
2022/07/14 12:44:24;;;;;;;4.97;0.85;;;26.80;54.80;;;;;;5112496;28;20085;-88
2022/07/14 12:47:11;;;;;;;3.13;0.65;;;25.80;55.50;;;;;;5112109;28;20075;-87
2022/07/14 12:49:46;;;;;;;1.52;0.60;;;25.00;55.40;;;;;;5113755;28;20036;-88
2022/07/14 12:52:12;;;;;;;3.83;0.70;;;24.70;56.80;;;;;;5112139;28;20044;-86
2022/07/14 12:54:40;;;;;;;2.92;0.70;;;24.80;57.60;;;;;;5112515;28;20074;-86
2022/07/14 12:57:07;;;;;;;5.30;0.70;;;24.50;59.00;;;;;;5113309;28;20039;-86
2022/07/14 12:59:35;;;;;;;3.45;0.85;;;24.10;60.70;;;;;;5112945;28;20074;-87
2022/07/14 13:02:06;;;;;;;3.75;0.70;;;24.00;63.10;;;;;;5112124;28;20063;-85